sensor_id;sensor_type;location;lat;lon;timestamp;temperature;humidity
3356;DHT22;1691;52.486;13.374;2023-08-06T00:01:45;17.90;96.80
3356;DHT22;1691;52.486;13.374;2023-08-06T00:04:13;17.90;96.90
3356;DHT22;1691;52.486;13.374;2023-08-06T00:06:41;17.90;96.90
3356;DHT22;1691;52.486;13.374;2023-08-06T00:09:09;17.90;96.90
3356;DHT22;1691;52.486;13.374;2023-08-06T00:11:37;18.00;97.00
3356;DHT22;1691;52.486;13.374;2023-08-06T00:14:05;17.90;97.10
3356;DHT22;1691;52.486;13.374;2023-08-06T00:16:33;17.90;97.10
3356;DHT22;1691;52.486;13.374;2023-08-06T00:19:01;17.90;97.20
3356;DHT22;1691;52.486;13.374;2023-08-06T00:21:30;17.90;97.30
3356;DHT22;1691;52.486;13.374;2023-08-06T00:23:58;17.90;97.30
3356;DHT22;1691;52.486;13.374;2023-08-06T00:26:26;17.80;97.30
3356;DHT22;1691;52.486;13.374;2023-08-06T00:28:53;17.80;97.40
3356;DHT22;1691;52.486;13.374;2023-08-06T00:31:27;17.80;97.40
3356;DHT22;1691;52.486;13.374;2023-08-06T00:33:55;17.80;97.40
3356;DHT22;1691;52.486;13.374;2023-08-06T00:36:23;17.80;97.40
3356;DHT22;1691;52.486;13.374;2023-08-06T00:38:51;17.80;97.40
3356;DHT22;1691;52.486;13.374;2023-08-06T00:41:26;17.80;97.40
3356;DHT22;1691;52.486;13.374;2023-08-06T00:43:54;17.80;97.50
3356;DHT22;1691;52.486;13.374;2023-08-06T00:46:22;17.80;97.50
3356;DHT22;1691;52.486;13.374;2023-08-06T00:48:50;17.80;97.50
3356;DHT22;1691;52.486;13.374;2023-08-06T00:51:19;17.70;97.50
3356;DHT22;1691;52.486;13.374;2023-08-06T00:53:52;17.70;97.60
3356;DHT22;1691;52.486;13.374;2023-08-06T00:56:20;17.80;97.60
3356;DHT22;1691;52.486;13.374;2023-08-06T00:58:48;17.70;97.60
3356;DHT22;1691;52.486;13.374;2023-08-06T01:01:19;17.70;97.60
3356;DHT22;1691;52.486;13.374;2023-08-06T01:03:47;17.70;97.70
3356;DHT22;1691;52.486;13.374;2023-08-06T01:06:19;17.70;97.80
3356;DHT22;1691;52.486;13.374;2023-08-06T01:09:01;17.70;97.90
3356;DHT22;1691;52.486;13.374;2023-08-06T01:14:56;17.60;98.00
3356;DHT22;1691;52.486;13.374;2023-08-06T01:17:29;17.60;98.00
3356;DHT22;1691;52.486;13.374;2023-08-06T01:19:58;17.60;98.20
3356;DHT22;1691;52.486;13.374;2023-08-06T01:22:26;17.60;98.30
3356;DHT22;1691;52.486;13.374;2023-08-06T01:24:57;17.60;98.30
3356;DHT22;1691;52.486;13.374;2023-08-06T01:27:38;17.50;98.40
3356;DHT22;1691;52.486;13.374;2023-08-06T01:30:29;17.50;98.50
3356;DHT22;1691;52.486;13.374;2023-08-06T01:33:00;17.40;98.60
3356;DHT22;1691;52.486;13.374;2023-08-06T01:35:31;17.40;98.60
3356;DHT22;1691;52.486;13.374;2023-08-06T01:38:02;17.40;98.70
3356;DHT22;1691;52.486;13.374;2023-08-06T01:40:33;17.40;98.70
3356;DHT22;1691;52.486;13.374;2023-08-06T01:43:02;17.30;98.70
3356;DHT22;1691;52.486;13.374;2023-08-06T01:45:31;17.30;98.70
3356;DHT22;1691;52.486;13.374;2023-08-06T01:48:01;17.30;98.70
3356;DHT22;1691;52.486;13.374;2023-08-06T01:50:32;17.30;98.70
3356;DHT22;1691;52.486;13.374;2023-08-06T01:53:02;17.30;98.70
3356;DHT22;1691;52.486;13.374;2023-08-06T01:55:30;17.20;98.70
3356;DHT22;1691;52.486;13.374;2023-08-06T01:57:58;17.20;98.70
3356;DHT22;1691;52.486;13.374;2023-08-06T02:00:26;17.10;98.70
3356;DHT22;1691;52.486;13.374;2023-08-06T02:02:55;17.10;98.70
3356;DHT22;1691;52.486;13.374;2023-08-06T02:05:23;17.00;98.70
3356;DHT22;1691;52.486;13.374;2023-08-06T02:07:53;17.00;98.70
3356;DHT22;1691;52.486;13.374;2023-08-06T02:10:24;17.00;98.70
3356;DHT22;1691;52.486;13.374;2023-08-06T02:12:51;17.00;98.70
3356;DHT22;1691;52.486;13.374;2023-08-06T02:15:22;16.90;98.70
3356;DHT22;1691;52.486;13.374;2023-08-06T02:17:50;16.90;98.70
3356;DHT22;1691;52.486;13.374;2023-08-06T02:20:18;16.80;98.70
3356;DHT22;1691;52.486;13.374;2023-08-06T02:22:48;16.80;98.70
3356;DHT22;1691;52.486;13.374;2023-08-06T02:25:18;16.80;98.70
3356;DHT22;1691;52.486;13.374;2023-08-06T02:27:49;16.80;98.70
3356;DHT22;1691;52.486;13.374;2023-08-06T02:30:17;16.70;98.70
3356;DHT22;1691;52.486;13.374;2023-08-06T02:32:45;16.70;98.70
3356;DHT22;1691;52.486;13.374;2023-08-06T02:35:17;16.70;98.70
3356;DHT22;1691;52.486;13.374;2023-08-06T02:37:44;16.70;98.70
3356;DHT22;1691;52.486;13.374;2023-08-06T02:40:12;16.70;98.70
3356;DHT22;1691;52.486;13.374;2023-08-06T02:42:43;16.70;98.70
3356;DHT22;1691;52.486;13.374;2023-08-06T02:45:11;16.70;98.70
3356;DHT22;1691;52.486;13.374;2023-08-06T02:47:39;16.70;98.70
3356;DHT22;1691;52.486;13.374;2023-08-06T02:50:07;16.70;98.70
3356;DHT22;1691;52.486;13.374;2023-08-06T02:52:35;16.70;98.70
3356;DHT22;1691;52.486;13.374;2023-08-06T02:55:07;16.70;98.70
3356;DHT22;1691;52.486;13.374;2023-08-06T02:57:37;16.70;98.70
3356;DHT22;1691;52.486;13.374;2023-08-06T03:00:06;16.60;98.70
3356;DHT22;1691;52.486;13.374;2023-08-06T03:02:43;16.60;98.70
3356;DHT22;1691;52.486;13.374;2023-08-06T03:05:13;16.60;98.70
3356;DHT22;1691;52.486;13.374;2023-08-06T03:07:42;16.60;98.70
3356;DHT22;1691;52.486;13.374;2023-08-06T03:10:26;16.60;98.70
3356;DHT22;1691;52.486;13.374;2023-08-06T03:13:01;16.60;98.70
3356;DHT22;1691;52.486;13.374;2023-08-06T03:15:38;16.50;98.70
3356;DHT22;1691;52.486;13.374;2023-08-06T03:18:06;16.50;98.70
3356;DHT22;1691;52.486;13.374;2023-08-06T03:20:34;16.50;98.70
3356;DHT22;1691;52.486;13.374;2023-08-06T03:23:02;16.40;98.70
3356;DHT22;1691;52.486;13.374;2023-08-06T03:25:35;16.40;98.70
3356;DHT22;1691;52.486;13.374;2023-08-06T03:28:03;16.40;98.70
3356;DHT22;1691;52.486;13.374;2023-08-06T03:30:39;16.30;98.70
3356;DHT22;1691;52.486;13.374;2023-08-06T03:33:06;16.30;98.70
3356;DHT22;1691;52.486;13.374;2023-08-06T03:35:34;16.30;98.70
3356;DHT22;1691;52.486;13.374;2023-08-06T03:38:02;16.20;98.70
3356;DHT22;1691;52.486;13.374;2023-08-06T03:40:30;16.20;98.70
3356;DHT22;1691;52.486;13.374;2023-08-06T03:42:57;16.20;98.70
3356;DHT22;1691;52.486;13.374;2023-08-06T03:45:25;16.10;98.70
3356;DHT22;1691;52.486;13.374;2023-08-06T03:47:52;16.10;98.70
3356;DHT22;1691;52.486;13.374;2023-08-06T03:50:20;16.10;98.70
3356;DHT22;1691;52.486;13.374;2023-08-06T03:52:47;16.10;98.70
3356;DHT22;1691;52.486;13.374;2023-08-06T03:55:18;16.10;98.70
3356;DHT22;1691;52.486;13.374;2023-08-06T03:57:45;16.10;98.70
3356;DHT22;1691;52.486;13.374;2023-08-06T04:00:13;16.10;98.70
3356;DHT22;1691;52.486;13.374;2023-08-06T04:02:41;16.10;98.70
3356;DHT22;1691;52.486;13.374;2023-08-06T04:05:09;16.20;98.70
3356;DHT22;1691;52.486;13.374;2023-08-06T04:07:36;16.20;98.70
3356;DHT22;1691;52.486;13.374;2023-08-06T04:10:04;16.20;98.70
3356;DHT22;1691;52.486;13.374;2023-08-06T04:12:32;16.20;98.70
3356;DHT22;1691;52.486;13.374;2023-08-06T04:15:03;16.20;98.70
3356;DHT22;1691;52.486;13.374;2023-08-06T04:17:31;16.20;98.70
3356;DHT22;1691;52.486;13.374;2023-08-06T04:19:59;16.20;98.70
3356;DHT22;1691;52.486;13.374;2023-08-06T04:22:27;16.20;98.70
3356;DHT22;1691;52.486;13.374;2023-08-06T04:24:54;16.10;98.70
3356;DHT22;1691;52.486;13.374;2023-08-06T04:27:22;16.10;98.70
3356;DHT22;1691;52.486;13.374;2023-08-06T04:29:49;16.10;98.70
3356;DHT22;1691;52.486;13.374;2023-08-06T04:32:16;16.10;98.70
3356;DHT22;1691;52.486;13.374;2023-08-06T04:34:46;16.10;98.70
3356;DHT22;1691;52.486;13.374;2023-08-06T04:37:14;16.10;98.70
3356;DHT22;1691;52.486;13.374;2023-08-06T04:39:41;16.10;98.70
3356;DHT22;1691;52.486;13.374;2023-08-06T04:42:08;16.20;98.70
3356;DHT22;1691;52.486;13.374;2023-08-06T04:44:35;16.20;98.70
3356;DHT22;1691;52.486;13.374;2023-08-06T04:47:02;16.20;98.70
3356;DHT22;1691;52.486;13.374;2023-08-06T04:49:29;16.20;98.70
3356;DHT22;1691;52.486;13.374;2023-08-06T04:51:57;16.20;98.70
3356;DHT22;1691;52.486;13.374;2023-08-06T04:54:24;16.30;98.70
3356;DHT22;1691;52.486;13.374;2023-08-06T04:56:51;16.30;98.70
3356;DHT22;1691;52.486;13.374;2023-08-06T04:59:18;16.30;98.70
3356;DHT22;1691;52.486;13.374;2023-08-06T05:01:45;16.40;98.70
3356;DHT22;1691;52.486;13.374;2023-08-06T05:04:12;16.40;98.70
3356;DHT22;1691;52.486;13.374;2023-08-06T05:06:39;16.40;98.70
3356;DHT22;1691;52.486;13.374;2023-08-06T05:09:07;16.40;98.70
3356;DHT22;1691;52.486;13.374;2023-08-06T05:11:34;16.50;98.70
3356;DHT22;1691;52.486;13.374;2023-08-06T05:14:00;16.50;98.70
3356;DHT22;1691;52.486;13.374;2023-08-06T05:16:28;16.50;98.70
3356;DHT22;1691;52.486;13.374;2023-08-06T05:18:55;16.60;98.70
3356;DHT22;1691;52.486;13.374;2023-08-06T05:21:22;16.60;98.70
3356;DHT22;1691;52.486;13.374;2023-08-06T05:23:49;16.50;98.70
3356;DHT22;1691;52.486;13.374;2023-08-06T05:26:16;16.50;98.70
3356;DHT22;1691;52.486;13.374;2023-08-06T05:28:45;16.50;98.70
3356;DHT22;1691;52.486;13.374;2023-08-06T05:31:13;16.50;98.70
3356;DHT22;1691;52.486;13.374;2023-08-06T05:33:40;16.50;98.70
3356;DHT22;1691;52.486;13.374;2023-08-06T05:36:07;16.50;98.70
3356;DHT22;1691;52.486;13.374;2023-08-06T05:38:34;16.60;98.70
3356;DHT22;1691;52.486;13.374;2023-08-06T05:41:01;16.60;98.70
3356;DHT22;1691;52.486;13.374;2023-08-06T05:43:28;16.60;98.70
3356;DHT22;1691;52.486;13.374;2023-08-06T05:45:56;16.70;98.70
3356;DHT22;1691;52.486;13.374;2023-08-06T05:48:23;16.70;98.70
3356;DHT22;1691;52.486;13.374;2023-08-06T05:50:52;16.80;98.70
3356;DHT22;1691;52.486;13.374;2023-08-06T05:53:19;16.80;98.70
3356;DHT22;1691;52.486;13.374;2023-08-06T05:55:46;16.80;98.70
3356;DHT22;1691;52.486;13.374;2023-08-06T05:58:13;16.80;98.70
3356;DHT22;1691;52.486;13.374;2023-08-06T06:00:40;16.80;98.70
3356;DHT22;1691;52.486;13.374;2023-08-06T06:03:07;16.80;98.70
3356;DHT22;1691;52.486;13.374;2023-08-06T06:05:38;16.90;98.70
3356;DHT22;1691;52.486;13.374;2023-08-06T06:08:05;16.90;98.70
3356;DHT22;1691;52.486;13.374;2023-08-06T06:10:32;16.90;98.70
3356;DHT22;1691;52.486;13.374;2023-08-06T06:12:59;17.00;98.70
3356;DHT22;1691;52.486;13.374;2023-08-06T06:15:26;17.00;98.70
3356;DHT22;1691;52.486;13.374;2023-08-06T06:17:53;17.10;98.70
3356;DHT22;1691;52.486;13.374;2023-08-06T06:20:21;17.10;98.70
3356;DHT22;1691;52.486;13.374;2023-08-06T06:22:48;17.20;98.70
3356;DHT22;1691;52.486;13.374;2023-08-06T06:25:15;17.20;98.70
3356;DHT22;1691;52.486;13.374;2023-08-06T06:27:42;17.20;98.70
3356;DHT22;1691;52.486;13.374;2023-08-06T06:30:09;17.20;98.70
3356;DHT22;1691;52.486;13.374;2023-08-06T06:32:38;17.20;98.70
3356;DHT22;1691;52.486;13.374;2023-08-06T06:35:07;17.20;98.70
3356;DHT22;1691;52.486;13.374;2023-08-06T06:37:35;17.20;98.70
3356;DHT22;1691;52.486;13.374;2023-08-06T06:40:02;17.20;98.70
3356;DHT22;1691;52.486;13.374;2023-08-06T06:42:30;17.20;98.70
3356;DHT22;1691;52.486;13.374;2023-08-06T06:44:57;17.20;98.70
3356;DHT22;1691;52.486;13.374;2023-08-06T06:47:24;17.30;98.70
3356;DHT22;1691;52.486;13.374;2023-08-06T06:49:51;17.30;98.70
3356;DHT22;1691;52.486;13.374;2023-08-06T06:52:18;17.30;98.70
3356;DHT22;1691;52.486;13.374;2023-08-06T06:54:45;17.40;98.70
3356;DHT22;1691;52.486;13.374;2023-08-06T06:57:12;17.40;98.70
3356;DHT22;1691;52.486;13.374;2023-08-06T06:59:39;17.40;98.70
3356;DHT22;1691;52.486;13.374;2023-08-06T07:02:07;17.50;98.70
3356;DHT22;1691;52.486;13.374;2023-08-06T07:04:34;17.50;98.70
3356;DHT22;1691;52.486;13.374;2023-08-06T07:07:01;17.50;98.70
3356;DHT22;1691;52.486;13.374;2023-08-06T07:09:28;17.60;98.70
3356;DHT22;1691;52.486;13.374;2023-08-06T07:11:55;17.70;98.70
3356;DHT22;1691;52.486;13.374;2023-08-06T07:14:25;17.80;98.70
3356;DHT22;1691;52.486;13.374;2023-08-06T07:16:52;17.90;98.70
3356;DHT22;1691;52.486;13.374;2023-08-06T07:19:19;18.00;98.70
3356;DHT22;1691;52.486;13.374;2023-08-06T07:21:46;18.00;98.70
3356;DHT22;1691;52.486;13.374;2023-08-06T07:24:13;18.10;98.70
3356;DHT22;1691;52.486;13.374;2023-08-06T07:26:40;18.20;98.70
3356;DHT22;1691;52.486;13.374;2023-08-06T07:29:07;18.30;98.70
3356;DHT22;1691;52.486;13.374;2023-08-06T07:31:34;18.30;98.70
3356;DHT22;1691;52.486;13.374;2023-08-06T07:34:01;18.40;98.70
3356;DHT22;1691;52.486;13.374;2023-08-06T07:36:28;18.40;98.70
3356;DHT22;1691;52.486;13.374;2023-08-06T07:38:55;18.40;98.70
3356;DHT22;1691;52.486;13.374;2023-08-06T07:41:23;18.30;98.70
3356;DHT22;1691;52.486;13.374;2023-08-06T07:43:50;18.30;98.70
3356;DHT22;1691;52.486;13.374;2023-08-06T07:46:17;18.30;98.70
3356;DHT22;1691;52.486;13.374;2023-08-06T07:48:44;18.30;98.70
3356;DHT22;1691;52.486;13.374;2023-08-06T07:51:11;18.30;98.70
3356;DHT22;1691;52.486;13.374;2023-08-06T07:53:38;18.30;98.70
3356;DHT22;1691;52.486;13.374;2023-08-06T07:56:05;18.30;98.70
3356;DHT22;1691;52.486;13.374;2023-08-06T07:58:33;18.30;98.70
3356;DHT22;1691;52.486;13.374;2023-08-06T08:01:00;18.30;98.70
3356;DHT22;1691;52.486;13.374;2023-08-06T08:03:30;18.30;98.70
3356;DHT22;1691;52.486;13.374;2023-08-06T08:05:57;18.30;98.70
3356;DHT22;1691;52.486;13.374;2023-08-06T08:08:24;18.30;98.70
3356;DHT22;1691;52.486;13.374;2023-08-06T08:10:52;18.40;98.70
3356;DHT22;1691;52.486;13.374;2023-08-06T08:13:19;18.40;98.70
3356;DHT22;1691;52.486;13.374;2023-08-06T08:15:46;18.50;98.70
3356;DHT22;1691;52.486;13.374;2023-08-06T08:18:13;18.50;98.70
3356;DHT22;1691;52.486;13.374;2023-08-06T08:20:40;18.50;98.70
3356;DHT22;1691;52.486;13.374;2023-08-06T08:23:07;18.60;98.70
3356;DHT22;1691;52.486;13.374;2023-08-06T08:25:34;18.60;98.70
3356;DHT22;1691;52.486;13.374;2023-08-06T08:28:01;18.70;98.70
3356;DHT22;1691;52.486;13.374;2023-08-06T08:30:28;18.80;98.70
3356;DHT22;1691;52.486;13.374;2023-08-06T08:32:55;18.90;98.70
3356;DHT22;1691;52.486;13.374;2023-08-06T08:35:22;19.00;98.70
3356;DHT22;1691;52.486;13.374;2023-08-06T08:37:49;19.10;98.70
3356;DHT22;1691;52.486;13.374;2023-08-06T08:40:17;19.20;98.70
3356;DHT22;1691;52.486;13.374;2023-08-06T08:42:44;19.30;98.70
3356;DHT22;1691;52.486;13.374;2023-08-06T08:45:15;19.40;98.70
3356;DHT22;1691;52.486;13.374;2023-08-06T08:47:43;19.50;98.70
3356;DHT22;1691;52.486;13.374;2023-08-06T08:50:10;19.60;98.70
3356;DHT22;1691;52.486;13.374;2023-08-06T08:52:38;19.70;98.70
3356;DHT22;1691;52.486;13.374;2023-08-06T08:55:07;19.70;98.70
3356;DHT22;1691;52.486;13.374;2023-08-06T08:57:35;19.80;98.70
3356;DHT22;1691;52.486;13.374;2023-08-06T09:00:03;19.80;98.70
3356;DHT22;1691;52.486;13.374;2023-08-06T09:02:32;19.80;98.70
3356;DHT22;1691;52.486;13.374;2023-08-06T09:05:01;19.90;98.70
3356;DHT22;1691;52.486;13.374;2023-08-06T09:07:43;19.80;98.70
3356;DHT22;1691;52.486;13.374;2023-08-06T09:10:14;19.80;98.70
3356;DHT22;1691;52.486;13.374;2023-08-06T09:12:45;19.90;98.70
3356;DHT22;1691;52.486;13.374;2023-08-06T09:15:12;19.90;98.70
3356;DHT22;1691;52.486;13.374;2023-08-06T09:17:40;20.00;98.70
3356;DHT22;1691;52.486;13.374;2023-08-06T09:20:14;20.00;98.70
3356;DHT22;1691;52.486;13.374;2023-08-06T09:22:42;20.00;98.70
3356;DHT22;1691;52.486;13.374;2023-08-06T09:25:09;20.10;98.70
3356;DHT22;1691;52.486;13.374;2023-08-06T09:27:37;20.10;98.70
3356;DHT22;1691;52.486;13.374;2023-08-06T09:30:06;20.10;98.70
3356;DHT22;1691;52.486;13.374;2023-08-06T09:32:47;20.20;98.70
3356;DHT22;1691;52.486;13.374;2023-08-06T09:35:18;20.20;98.70
3356;DHT22;1691;52.486;13.374;2023-08-06T09:37:46;20.20;98.70
3356;DHT22;1691;52.486;13.374;2023-08-06T09:40:31;20.20;98.70
3356;DHT22;1691;52.486;13.374;2023-08-06T09:42:59;20.20;98.70
3356;DHT22;1691;52.486;13.374;2023-08-06T09:45:34;20.20;98.70
3356;DHT22;1691;52.486;13.374;2023-08-06T09:48:07;20.10;98.70
3356;DHT22;1691;52.486;13.374;2023-08-06T09:50:36;20.00;98.70
3356;DHT22;1691;52.486;13.374;2023-08-06T09:53:05;20.00;98.70
3356;DHT22;1691;52.486;13.374;2023-08-06T09:55:34;20.00;98.70
3356;DHT22;1691;52.486;13.374;2023-08-06T09:58:02;19.90;98.70
3356;DHT22;1691;52.486;13.374;2023-08-06T10:00:30;20.00;98.70
3356;DHT22;1691;52.486;13.374;2023-08-06T10:03:02;20.00;98.70
3356;DHT22;1691;52.486;13.374;2023-08-06T10:05:31;20.10;98.70
3356;DHT22;1691;52.486;13.374;2023-08-06T10:07:59;20.20;98.70
3356;DHT22;1691;52.486;13.374;2023-08-06T10:10:29;20.20;98.70
3356;DHT22;1691;52.486;13.374;2023-08-06T10:12:58;20.20;98.70
3356;DHT22;1691;52.486;13.374;2023-08-06T10:15:29;20.10;98.70
3356;DHT22;1691;52.486;13.374;2023-08-06T10:17:59;20.10;98.70
3356;DHT22;1691;52.486;13.374;2023-08-06T10:20:33;20.00;98.70
3356;DHT22;1691;52.486;13.374;2023-08-06T10:23:05;19.90;98.70
3356;DHT22;1691;52.486;13.374;2023-08-06T10:25:35;19.70;98.70
3356;DHT22;1691;52.486;13.374;2023-08-06T10:28:11;19.60;98.70
3356;DHT22;1691;52.486;13.374;2023-08-06T10:30:44;19.50;98.70
3356;DHT22;1691;52.486;13.374;2023-08-06T10:33:12;19.50;98.70
3356;DHT22;1691;52.486;13.374;2023-08-06T10:35:46;19.40;98.70
3356;DHT22;1691;52.486;13.374;2023-08-06T10:43:35;19.60;98.70
3356;DHT22;1691;52.486;13.374;2023-08-06T10:46:10;19.60;98.70
3356;DHT22;1691;52.486;13.374;2023-08-06T10:48:44;19.70;98.70
3356;DHT22;1691;52.486;13.374;2023-08-06T10:51:13;19.60;98.70
3356;DHT22;1691;52.486;13.374;2023-08-06T10:53:45;19.70;98.70
3356;DHT22;1691;52.486;13.374;2023-08-06T10:56:14;19.70;98.70
3356;DHT22;1691;52.486;13.374;2023-08-06T10:58:42;19.70;98.70
3356;DHT22;1691;52.486;13.374;2023-08-06T11:01:10;19.80;98.70
3356;DHT22;1691;52.486;13.374;2023-08-06T11:03:38;19.80;98.70
3356;DHT22;1691;52.486;13.374;2023-08-06T11:06:10;19.80;98.70
3356;DHT22;1691;52.486;13.374;2023-08-06T11:08:40;19.90;98.70
3356;DHT22;1691;52.486;13.374;2023-08-06T11:11:13;19.90;98.70
3356;DHT22;1691;52.486;13.374;2023-08-06T11:13:46;19.90;98.70
3356;DHT22;1691;52.486;13.374;2023-08-06T11:16:18;19.90;98.70
3356;DHT22;1691;52.486;13.374;2023-08-06T11:18:47;19.90;98.70
3356;DHT22;1691;52.486;13.374;2023-08-06T11:21:19;20.00;98.70
3356;DHT22;1691;52.486;13.374;2023-08-06T11:23:47;20.00;98.70
3356;DHT22;1691;52.486;13.374;2023-08-06T11:26:21;20.10;98.70
3356;DHT22;1691;52.486;13.374;2023-08-06T11:28:50;20.20;98.70
3356;DHT22;1691;52.486;13.374;2023-08-06T11:31:24;20.30;98.70
3356;DHT22;1691;52.486;13.374;2023-08-06T11:33:55;20.30;98.70
3356;DHT22;1691;52.486;13.374;2023-08-06T11:36:32;20.40;98.70
3356;DHT22;1691;52.486;13.374;2023-08-06T11:39:00;20.40;98.70
3356;DHT22;1691;52.486;13.374;2023-08-06T11:41:30;20.40;98.70
3356;DHT22;1691;52.486;13.374;2023-08-06T11:43:58;20.40;98.70
3356;DHT22;1691;52.486;13.374;2023-08-06T11:46:26;20.50;98.70
3356;DHT22;1691;52.486;13.374;2023-08-06T11:48:57;20.50;98.70
3356;DHT22;1691;52.486;13.374;2023-08-06T11:51:26;20.50;98.70
3356;DHT22;1691;52.486;13.374;2023-08-06T11:53:57;20.40;98.70
3356;DHT22;1691;52.486;13.374;2023-08-06T11:56:25;20.40;98.70
3356;DHT22;1691;52.486;13.374;2023-08-06T11:58:54;20.40;98.70
3356;DHT22;1691;52.486;13.374;2023-08-06T12:01:22;20.40;98.70
3356;DHT22;1691;52.486;13.374;2023-08-06T12:03:49;20.40;98.70
3356;DHT22;1691;52.486;13.374;2023-08-06T12:06:16;20.40;98.70
3356;DHT22;1691;52.486;13.374;2023-08-06T12:08:43;20.30;98.70
3356;DHT22;1691;52.486;13.374;2023-08-06T12:11:10;20.20;98.70
3356;DHT22;1691;52.486;13.374;2023-08-06T12:13:38;20.20;98.70
3356;DHT22;1691;52.486;13.374;2023-08-06T12:16:05;20.10;98.70
3356;DHT22;1691;52.486;13.374;2023-08-06T12:18:32;20.10;98.70
3356;DHT22;1691;52.486;13.374;2023-08-06T12:20:59;20.00;98.70
3356;DHT22;1691;52.486;13.374;2023-08-06T12:23:26;19.90;98.70
3356;DHT22;1691;52.486;13.374;2023-08-06T12:25:53;19.90;98.70
3356;DHT22;1691;52.486;13.374;2023-08-06T12:28:19;19.90;98.70
3356;DHT22;1691;52.486;13.374;2023-08-06T12:30:49;19.90;98.70
3356;DHT22;1691;52.486;13.374;2023-08-06T12:33:18;19.90;98.70
3356;DHT22;1691;52.486;13.374;2023-08-06T12:38:13;19.80;98.70
3356;DHT22;1691;52.486;13.374;2023-08-06T12:40:40;19.80;98.70
3356;DHT22;1691;52.486;13.374;2023-08-06T12:43:09;19.70;98.70
3356;DHT22;1691;52.486;13.374;2023-08-06T12:45:36;19.60;98.70
3356;DHT22;1691;52.486;13.374;2023-08-06T12:48:03;19.60;98.70
3356;DHT22;1691;52.486;13.374;2023-08-06T12:50:31;19.50;98.70
3356;DHT22;1691;52.486;13.374;2023-08-06T12:53:00;19.50;98.70
3356;DHT22;1691;52.486;13.374;2023-08-06T12:55:27;19.50;98.70
3356;DHT22;1691;52.486;13.374;2023-08-06T12:57:57;19.50;98.70
3356;DHT22;1691;52.486;13.374;2023-08-06T13:00:27;19.50;98.70
3356;DHT22;1691;52.486;13.374;2023-08-06T13:02:55;19.50;98.70
3356;DHT22;1691;52.486;13.374;2023-08-06T13:05:22;19.50;98.70
3356;DHT22;1691;52.486;13.374;2023-08-06T13:07:49;19.50;98.70
3356;DHT22;1691;52.486;13.374;2023-08-06T13:10:16;19.50;98.70
3356;DHT22;1691;52.486;13.374;2023-08-06T13:12:44;19.50;98.70
3356;DHT22;1691;52.486;13.374;2023-08-06T13:15:11;19.50;98.70
3356;DHT22;1691;52.486;13.374;2023-08-06T13:17:38;19.40;98.70
3356;DHT22;1691;52.486;13.374;2023-08-06T13:20:06;19.40;98.70
3356;DHT22;1691;52.486;13.374;2023-08-06T13:22:33;19.30;98.70
3356;DHT22;1691;52.486;13.374;2023-08-06T13:25:00;19.30;98.70
3356;DHT22;1691;52.486;13.374;2023-08-06T13:27:27;19.30;98.70
3356;DHT22;1691;52.486;13.374;2023-08-06T13:29:54;19.20;98.70
3356;DHT22;1691;52.486;13.374;2023-08-06T13:32:21;19.10;98.70
3356;DHT22;1691;52.486;13.374;2023-08-06T13:34:48;19.10;98.70
3356;DHT22;1691;52.486;13.374;2023-08-06T13:37:15;19.00;98.70
3356;DHT22;1691;52.486;13.374;2023-08-06T13:39:42;19.00;98.70
3356;DHT22;1691;52.486;13.374;2023-08-06T13:42:09;18.90;98.70
3356;DHT22;1691;52.486;13.374;2023-08-06T13:44:36;19.00;98.70
3356;DHT22;1691;52.486;13.374;2023-08-06T13:47:03;19.00;98.70
3356;DHT22;1691;52.486;13.374;2023-08-06T13:49:30;19.00;98.70
3356;DHT22;1691;52.486;13.374;2023-08-06T13:51:57;18.90;98.70
3356;DHT22;1691;52.486;13.374;2023-08-06T13:54:41;18.90;98.70
3356;DHT22;1691;52.486;13.374;2023-08-06T13:57:08;18.90;98.70
3356;DHT22;1691;52.486;13.374;2023-08-06T13:59:35;18.90;98.70
3356;DHT22;1691;52.486;13.374;2023-08-06T14:02:02;19.00;98.70
3356;DHT22;1691;52.486;13.374;2023-08-06T14:04:30;19.00;98.70
3356;DHT22;1691;52.486;13.374;2023-08-06T14:06:57;19.10;98.70
3356;DHT22;1691;52.486;13.374;2023-08-06T14:09:24;19.10;98.70
3356;DHT22;1691;52.486;13.374;2023-08-06T14:11:51;19.10;98.70
3356;DHT22;1691;52.486;13.374;2023-08-06T14:14:18;19.20;98.70
3356;DHT22;1691;52.486;13.374;2023-08-06T14:16:47;19.20;98.70
3356;DHT22;1691;52.486;13.374;2023-08-06T14:19:14;19.20;98.70
3356;DHT22;1691;52.486;13.374;2023-08-06T14:21:41;19.20;98.70
3356;DHT22;1691;52.486;13.374;2023-08-06T14:24:08;19.10;98.70
3356;DHT22;1691;52.486;13.374;2023-08-06T14:26:35;19.00;98.70
3356;DHT22;1691;52.486;13.374;2023-08-06T14:29:02;19.00;98.70
3356;DHT22;1691;52.486;13.374;2023-08-06T14:31:29;18.90;98.70
3356;DHT22;1691;52.486;13.374;2023-08-06T14:33:56;18.80;98.70
3356;DHT22;1691;52.486;13.374;2023-08-06T14:36:23;18.70;98.70
3356;DHT22;1691;52.486;13.374;2023-08-06T14:38:50;18.70;98.70
3356;DHT22;1691;52.486;13.374;2023-08-06T14:41:26;18.60;98.70
3356;DHT22;1691;52.486;13.374;2023-08-06T14:43:53;18.60;98.70
3356;DHT22;1691;52.486;13.374;2023-08-06T14:46:23;18.60;98.70
3356;DHT22;1691;52.486;13.374;2023-08-06T14:48:50;18.60;98.70
3356;DHT22;1691;52.486;13.374;2023-08-06T14:51:17;18.60;98.70
3356;DHT22;1691;52.486;13.374;2023-08-06T14:53:47;18.60;98.70
3356;DHT22;1691;52.486;13.374;2023-08-06T14:56:15;18.70;98.70
3356;DHT22;1691;52.486;13.374;2023-08-06T14:58:42;18.70;98.70
3356;DHT22;1691;52.486;13.374;2023-08-06T15:01:09;18.70;98.70
3356;DHT22;1691;52.486;13.374;2023-08-06T15:03:36;18.70;98.70
3356;DHT22;1691;52.486;13.374;2023-08-06T15:06:03;18.80;98.70
3356;DHT22;1691;52.486;13.374;2023-08-06T15:08:30;18.80;98.70
3356;DHT22;1691;52.486;13.374;2023-08-06T15:10:57;18.90;98.70
3356;DHT22;1691;52.486;13.374;2023-08-06T15:13:24;19.00;98.70
3356;DHT22;1691;52.486;13.374;2023-08-06T15:15:52;19.10;98.70
3356;DHT22;1691;52.486;13.374;2023-08-06T15:18:19;19.20;98.70
3356;DHT22;1691;52.486;13.374;2023-08-06T15:20:46;19.20;98.70
3356;DHT22;1691;52.486;13.374;2023-08-06T15:23:13;19.30;98.70
3356;DHT22;1691;52.486;13.374;2023-08-06T15:25:41;19.30;98.70
3356;DHT22;1691;52.486;13.374;2023-08-06T15:28:08;19.30;98.70
3356;DHT22;1691;52.486;13.374;2023-08-06T15:30:35;19.30;98.70
3356;DHT22;1691;52.486;13.374;2023-08-06T15:33:02;19.30;98.70
3356;DHT22;1691;52.486;13.374;2023-08-06T15:35:29;19.30;98.70
3356;DHT22;1691;52.486;13.374;2023-08-06T15:37:56;19.30;98.70
3356;DHT22;1691;52.486;13.374;2023-08-06T15:40:23;19.30;98.70
3356;DHT22;1691;52.486;13.374;2023-08-06T15:42:50;19.30;98.70
3356;DHT22;1691;52.486;13.374;2023-08-06T15:45:17;19.30;98.70
3356;DHT22;1691;52.486;13.374;2023-08-06T15:47:44;19.30;98.70
3356;DHT22;1691;52.486;13.374;2023-08-06T15:50:11;19.20;98.70
3356;DHT22;1691;52.486;13.374;2023-08-06T15:52:38;19.10;98.70
3356;DHT22;1691;52.486;13.374;2023-08-06T15:55:06;19.10;98.70
3356;DHT22;1691;52.486;13.374;2023-08-06T15:57:34;19.10;98.70
3356;DHT22;1691;52.486;13.374;2023-08-06T16:00:02;19.10;98.70
3356;DHT22;1691;52.486;13.374;2023-08-06T16:02:31;19.10;98.70
3356;DHT22;1691;52.486;13.374;2023-08-06T16:04:59;19.10;98.70